createdAt,value
2023-05-18T00:00:06.904Z,14.24
2023-05-18T00:04:08.496Z,14.33
2023-05-18T00:08:11.551Z,14.34
2023-05-18T00:12:12.764Z,14.26
2023-05-18T00:16:16.147Z,14.18
2023-05-18T00:20:18.315Z,14.02
2023-05-18T00:24:22.278Z,13.77
2023-05-18T00:28:22.538Z,13.72
2023-05-18T00:32:22.727Z,13.41
2023-05-18T00:36:23.166Z,13.15
2023-05-18T00:40:28.649Z,12.94
2023-05-18T00:44:28.970Z,12.79
2023-05-18T00:48:29.236Z,12.59
2023-05-18T00:52:33.220Z,12.51
2023-05-18T00:56:36.913Z,12.30
2023-05-18T01:00:39.067Z,12.15
2023-05-18T01:04:41.540Z,11.99
2023-05-18T01:08:43.394Z,12.05
2023-05-18T01:12:54.575Z,11.92
2023-05-18T01:17:04.665Z,11.77
2023-05-18T01:21:22.220Z,11.64
2023-05-18T01:25:36.991Z,11.32
2023-05-18T01:29:41.672Z,11.40
2023-05-18T01:33:42.272Z,11.32
2023-05-18T01:37:42.916Z,11.27
2023-05-18T01:41:51.978Z,11.17
2023-05-18T01:46:04.383Z,10.84
2023-05-18T01:50:13.035Z,10.97
2023-05-18T01:54:15.728Z,10.75
2023-05-18T01:58:17.671Z,10.84
2023-05-18T02:02:20.795Z,10.92
2023-05-18T02:06:21.287Z,10.77
2023-05-18T02:10:21.817Z,10.81
2023-05-18T02:14:22.191Z,10.65
2023-05-18T02:18:27.029Z,10.55
2023-05-18T02:22:27.497Z,10.49
2023-05-18T02:26:27.936Z,10.51
2023-05-18T02:30:29.479Z,10.42
2023-05-18T02:34:33.197Z,10.28
2023-05-18T02:38:33.531Z,10.22
2023-05-18T02:42:34.158Z,10.17
2023-05-18T02:46:35.411Z,10.19
2023-05-18T02:50:38.638Z,10.13
2023-05-18T02:54:39.604Z,10.00
2023-05-18T02:58:46.614Z,9.95
2023-05-18T03:02:57.978Z,10.02
2023-05-18T03:07:03.203Z,10.13
2023-05-18T03:11:03.900Z,10.11
2023-05-18T03:15:05.506Z,9.89
2023-05-18T03:19:05.810Z,9.79
2023-05-18T03:23:12.900Z,9.94
2023-05-18T03:27:16.796Z,9.99
2023-05-18T03:31:18.293Z,9.88
2023-05-18T03:35:19.036Z,9.98
2023-05-18T03:39:22.035Z,9.83
2023-05-18T03:43:25.585Z,9.86
2023-05-18T03:47:27.215Z,9.92
2023-05-18T03:51:29.319Z,9.96
2023-05-18T03:55:32.600Z,9.91
2023-05-18T03:59:33.568Z,9.96
2023-05-18T04:03:35.460Z,9.89
2023-05-18T04:07:44.452Z,9.89
2023-05-18T04:11:48.197Z,9.74
2023-05-18T04:15:49.042Z,9.73
2023-05-18T04:19:49.275Z,9.95
2023-05-18T04:23:53.506Z,9.97
2023-05-18T04:27:57.422Z,9.85
2023-05-18T04:32:00.260Z,10.12
2023-05-18T04:36:05.196Z,10.16
2023-05-18T04:40:08.258Z,10.28
2023-05-18T04:44:14.456Z,10.38
2023-05-18T04:48:18.042Z,10.55
2023-05-18T04:52:18.773Z,10.67
2023-05-18T04:56:20.844Z,10.77
2023-05-18T05:00:24.999Z,10.86
2023-05-18T05:04:26.092Z,11.03
2023-05-18T05:08:26.429Z,11.18
2023-05-18T05:12:26.586Z,11.28
2023-05-18T05:16:29.816Z,11.45
2023-05-18T05:20:30.128Z,11.77
2023-05-18T05:24:31.569Z,11.88
2023-05-18T05:28:32.227Z,11.79
2023-05-18T05:32:36.284Z,12.24
2023-05-18T05:36:36.717Z,12.66
2023-05-18T05:40:37.619Z,12.90
2023-05-18T05:44:39.678Z,13.11
2023-05-18T05:48:42.872Z,13.28
2023-05-18T05:52:43.342Z,13.79
2023-05-18T05:56:44.269Z,14.15
2023-05-18T06:00:46.378Z,14.30
2023-05-18T06:04:50.503Z,14.47
2023-05-18T06:08:50.817Z,14.73
2023-05-18T06:12:51.822Z,14.76
2023-05-18T06:16:53.619Z,14.94
2023-05-18T06:20:57.056Z,14.99
2023-05-18T06:24:57.389Z,15.22
2023-05-18T06:29:17.726Z,15.63
2023-05-18T06:33:39.277Z,15.96
2023-05-18T06:37:43.141Z,15.85
2023-05-18T06:41:45.314Z,16.01
2023-05-18T06:45:53.077Z,16.26
2023-05-18T06:50:14.117Z,16.37
2023-05-18T06:54:17.468Z,16.65
2023-05-18T06:58:18.095Z,16.82
2023-05-18T07:02:19.384Z,17.16
2023-05-18T07:06:20.058Z,17.30
2023-05-18T07:10:23.636Z,16.81
2023-05-18T07:14:54.427Z,16.33
2023-05-18T07:18:57.990Z,16.57
2023-05-18T07:22:58.388Z,17.02
2023-05-18T07:27:01.571Z,17.56
2023-05-18T07:31:01.948Z,17.96
2023-05-18T07:35:05.326Z,18.07
2023-05-18T07:39:09.236Z,18.71
2023-05-18T07:43:12.358Z,18.60
2023-05-18T07:47:13.093Z,18.63
2023-05-18T07:51:13.469Z,19.38
2023-05-18T07:55:14.062Z,20.03
2023-05-18T07:59:17.539Z,20.56
2023-05-18T08:03:20.280Z,22.09
2023-05-18T08:07:28.383Z,22.42
2023-05-18T08:11:33.438Z,23.76
2023-05-18T08:15:39.216Z,24.72
2023-05-18T08:19:44.496Z,23.92
2023-05-18T08:23:46.290Z,23.93
2023-05-18T08:27:56.897Z,24.25
2023-05-18T08:32:17.448Z,24.28
2023-05-18T08:36:22.108Z,24.56
2023-05-18T08:40:34.196Z,25.48
2023-05-18T08:44:49.255Z,26.32
2023-05-18T08:49:02.682Z,23.48
2023-05-18T08:53:17.948Z,23.17
2023-05-18T08:57:39.607Z,24.07
2023-05-18T09:01:50.274Z,24.92
2023-05-18T09:06:09.706Z,25.73
2023-05-18T09:11:01.972Z,24.57
2023-05-18T09:15:22.496Z,23.89
2023-05-18T09:19:39.456Z,23.79
2023-05-18T09:23:59.696Z,24.47
2023-05-18T09:28:16.238Z,27.21
2023-05-18T09:32:43.212Z,27.73
2023-05-18T09:36:58.353Z,25.09
2023-05-18T09:41:04.726Z,25.41
2023-05-18T09:45:08.875Z,25.64
2023-05-18T09:49:20.767Z,24.71
2023-05-18T09:53:35.286Z,23.05
2023-05-18T09:57:52.395Z,24.36
2023-05-18T10:02:14.212Z,25.29
2023-05-18T10:06:34.819Z,26.40
2023-05-18T10:10:53.411Z,26.22
2023-05-18T10:14:58.345Z,28.12
2023-05-18T10:19:03.351Z,28.00
2023-05-18T10:23:18.103Z,27.58
2023-05-18T10:27:31.560Z,28.85
2023-05-18T10:31:51.435Z,27.96
2023-05-18T10:36:00.456Z,25.93
2023-05-18T10:40:21.296Z,26.34
2023-05-18T10:44:42.512Z,26.02
2023-05-18T10:49:15.904Z,29.67
2023-05-18T10:54:01.983Z,28.58
2023-05-18T10:58:56.096Z,28.98
2023-05-18T11:03:01.936Z,28.28
2023-05-18T11:07:23.369Z,26.50
2023-05-18T11:12:07.641Z,28.40
2023-05-18T11:16:15.517Z,29.94
2023-05-18T11:20:29.970Z,27.93
2023-05-18T11:24:48.192Z,29.37
2023-05-18T11:28:56.860Z,30.60
2023-05-18T11:33:14.325Z,29.97
2023-05-18T11:37:18.299Z,30.64
2023-05-18T11:41:44.520Z,30.53
2023-05-18T11:46:04.440Z,30.69
2023-05-18T11:50:19.781Z,33.34
2023-05-18T11:54:27.394Z,33.57
2023-05-18T11:58:38.794Z,33.61
2023-05-18T12:02:49.004Z,33.79
2023-05-18T12:07:05.339Z,33.07
2023-05-18T12:11:14.851Z,34.27
2023-05-18T12:15:20.006Z,32.44
2023-05-18T12:28:11.040Z,31.34
2023-05-18T12:32:23.630Z,30.68
2023-05-18T12:36:37.080Z,28.65
2023-05-18T12:40:51.196Z,29.96
2023-05-18T12:45:01.581Z,29.79
2023-05-18T12:49:13.683Z,28.16
2023-05-18T12:53:20.468Z,29.66
2023-05-18T12:57:31.204Z,29.11
2023-05-18T13:01:48.379Z,27.60
2023-05-18T13:06:18.652Z,27.10
2023-05-18T13:10:24.330Z,28.86
2023-05-18T13:14:50.393Z,28.69
2023-05-18T13:19:21.867Z,27.12
2023-05-18T13:23:46.890Z,27.89
2023-05-18T13:28:14.485Z,29.54
2023-05-18T13:32:22.469Z,28.40
2023-05-18T13:36:34.710Z,27.43
2023-05-18T13:40:49.357Z,28.19
2023-05-18T13:45:15.789Z,29.60
2023-05-18T13:49:23.963Z,30.22
2023-05-18T13:53:29.633Z,32.58
2023-05-18T13:57:42.053Z,32.57
2023-05-18T14:01:47.968Z,31.49
2023-05-18T14:05:51.020Z,31.90
2023-05-18T14:09:56.182Z,32.55
2023-05-18T14:14:03.678Z,33.42
2023-05-18T14:18:13.103Z,33.05
2023-05-18T14:22:19.780Z,31.61
2023-05-18T14:26:30.342Z,30.75
2023-05-18T14:30:47.590Z,29.52
2023-05-18T14:34:52.359Z,28.64
2023-05-18T14:38:59.901Z,30.78
2023-05-18T14:43:03.072Z,31.39
2023-05-18T14:47:08.188Z,32.39
2023-05-18T14:51:18.936Z,32.58
2023-05-18T14:55:25.318Z,33.11
2023-05-18T14:59:27.556Z,33.53
2023-05-18T15:03:32.149Z,32.08
2023-05-18T15:07:41.848Z,30.99
2023-05-18T15:11:48.872Z,32.43
2023-05-18T15:15:51.400Z,33.62
2023-05-18T15:20:13.342Z,33.17
2023-05-18T15:24:15.962Z,31.11
2023-05-18T15:28:23.947Z,30.33
2023-05-18T15:32:34.713Z,31.46
2023-05-18T15:36:39.418Z,30.62
2023-05-18T15:40:46.513Z,29.70
2023-05-18T15:44:51.440Z,28.48
2023-05-18T15:48:59.076Z,29.71
2023-05-18T15:53:04.378Z,32.24
2023-05-18T15:57:09.481Z,31.52
2023-05-18T16:01:12.771Z,30.50
2023-05-18T16:05:17.736Z,31.84
2023-05-18T16:09:30.521Z,31.30
2023-05-18T16:13:39.780Z,31.86
2023-05-18T16:17:47.951Z,30.59
2023-05-18T16:21:52.435Z,30.77
2023-05-18T16:26:00.253Z,29.96
2023-05-18T16:30:11.645Z,29.96
2023-05-18T16:34:17.794Z,29.26
2023-05-18T16:38:33.444Z,30.38
2023-05-18T16:42:42.388Z,31.11
2023-05-18T16:46:47.706Z,31.97
2023-05-18T16:50:56.018Z,31.84
2023-05-18T16:55:03.371Z,32.01
2023-05-18T16:59:18.607Z,30.90
2023-05-18T17:03:30.614Z,31.77
2023-05-18T17:07:35.052Z,32.27
2023-05-18T17:11:37.725Z,32.23
2023-05-18T17:15:47.143Z,32.32
2023-05-18T17:19:52.616Z,31.66
2023-05-18T17:24:37.197Z,31.52
2023-05-18T17:28:54.913Z,31.31
2023-05-18T17:33:44.525Z,30.45
2023-05-18T17:37:49.342Z,29.14
2023-05-18T17:41:53.106Z,29.00
2023-05-18T17:46:01.838Z,28.27
2023-05-18T17:50:14.723Z,27.80
2023-05-18T17:54:28.012Z,25.88
2023-05-18T17:58:54.068Z,25.74
2023-05-18T18:02:59.390Z,25.24
2023-05-18T18:07:11.808Z,24.81
2023-05-18T18:11:22.617Z,23.48
2023-05-18T18:15:30.235Z,23.53
2023-05-18T18:19:35.830Z,22.83
2023-05-18T18:24:22.682Z,22.11
2023-05-18T18:28:34.030Z,22.62
2023-05-18T18:32:45.684Z,21.97
2023-05-18T18:37:21.850Z,21.33
2023-05-18T18:41:43.947Z,21.14
2023-05-18T18:45:57.976Z,21.38
2023-05-18T18:50:01.857Z,20.90
2023-05-18T18:54:02.205Z,21.14
2023-05-18T18:58:05.186Z,21.04
2023-05-18T19:02:05.686Z,20.87
2023-05-18T19:06:06.080Z,20.94
2023-05-18T19:10:07.794Z,20.94
2023-05-18T19:14:10.841Z,20.89
2023-05-18T19:18:11.297Z,20.95
2023-05-18T19:22:12.301Z,20.90
2023-05-18T19:26:12.595Z,20.81
2023-05-18T19:30:21.251Z,20.72
2023-05-18T19:34:21.633Z,20.94
2023-05-18T19:38:23.082Z,20.58
2023-05-18T19:42:23.523Z,20.70
2023-05-18T19:46:26.606Z,20.63
2023-05-18T19:50:27.826Z,20.39
2023-05-18T19:54:28.571Z,20.31
2023-05-18T19:58:29.002Z,20.41
2023-05-18T20:02:32.301Z,20.51
2023-05-18T20:06:32.845Z,20.24
2023-05-18T20:10:33.529Z,20.38
2023-05-18T20:14:33.974Z,20.42
2023-05-18T20:18:37.936Z,20.24
2023-05-18T20:22:38.704Z,20.54
2023-05-18T20:26:39.921Z,20.35
2023-05-18T20:30:40.463Z,20.41
2023-05-18T20:34:44.757Z,20.40
2023-05-18T20:38:45.220Z,20.51
2023-05-18T20:42:45.413Z,20.39
2023-05-18T20:46:46.580Z,20.38
2023-05-18T20:50:50.105Z,20.27
2023-05-18T20:54:50.792Z,20.18
2023-05-18T20:58:51.367Z,19.87
2023-05-18T21:02:51.647Z,19.60
2023-05-18T21:06:54.747Z,19.72
2023-05-18T21:10:55.115Z,19.71
2023-05-18T21:14:55.394Z,19.55
2023-05-18T21:18:55.998Z,19.60
2023-05-18T21:22:59.164Z,19.55
2023-05-18T21:26:59.732Z,19.64
2023-05-18T21:31:00.545Z,19.63
2023-05-18T21:35:01.263Z,19.62
2023-05-18T21:39:04.911Z,19.49
2023-05-18T21:43:06.486Z,19.45
2023-05-18T21:47:07.692Z,19.29
2023-05-18T21:51:11.781Z,19.01
2023-05-18T21:55:15.034Z,19.10
2023-05-18T21:59:15.299Z,19.14
2023-05-18T22:03:15.695Z,19.20
2023-05-18T22:07:16.080Z,19.25
2023-05-18T22:11:19.102Z,19.21
2023-05-18T22:15:22.904Z,19.15
2023-05-18T22:19:23.832Z,19.00
2023-05-18T22:23:25.214Z,18.92
2023-05-18T22:27:28.033Z,18.92
2023-05-18T22:31:28.388Z,18.87
2023-05-18T22:35:31.119Z,18.88
2023-05-18T22:39:31.638Z,18.93
2023-05-18T22:43:34.415Z,18.98
2023-05-18T22:47:35.424Z,18.84
2023-05-18T22:51:36.775Z,19.03
2023-05-18T22:55:36.960Z,19.02
2023-05-18T22:59:40.532Z,18.54
2023-05-18T23:03:40.722Z,18.73
2023-05-18T23:07:42.021Z,18.66
2023-05-18T23:11:44.674Z,18.76
2023-05-18T23:15:47.961Z,18.68
2023-05-18T23:19:48.614Z,18.61
2023-05-18T23:23:48.765Z,18.73
2023-05-18T23:27:48.971Z,18.99
2023-05-18T23:31:52.592Z,18.93
2023-05-18T23:35:54.940Z,18.65
2023-05-18T23:39:56.166Z,18.43
2023-05-18T23:43:58.021Z,18.13
2023-05-18T23:48:03.185Z,18.16
2023-05-18T23:52:05.987Z,18.04
2023-05-18T23:56:08.235Z,17.84
